Time,TemperatureF,DewpointF,PressureIn,WindDirection,WindDirectionDegrees,WindSpeedMPH,WindSpeedGustMPH,Humidity,HourlyPrecipIn,Conditions,Clouds,dailyrainin,SoftwareType,DateUTC
2013-08-26 00:11:00,76.3,64.5,30.13,South,180,3.2,-999.0,67,-99.99,,,0.00,Acu-Link.com,2013-08-26 05:11:00,
2013-08-26 00:26:00,75.7,63.9,30.13,SSW,202,3.2,-999.0,67,-99.99,,,0.00,Acu-Link.com,2013-08-26 05:26:00,
2013-08-26 00:41:00,75.4,64.1,30.13,SW,225,3.2,-999.0,68,-99.99,,,0.00,Acu-Link.com,2013-08-26 05:41:00,
2013-08-26 00:56:00,75.2,64.3,30.13,WSW,247,3.2,-999.0,69,-99.99,,,0.00,Acu-Link.com,2013-08-26 05:56:00,
2013-08-26 01:11:00,74.8,63.9,30.12,SW,225,2.7,-999.0,69,-99.99,,,0.00,Acu-Link.com,2013-08-26 06:11:00,
2013-08-26 01:27:00,74.7,64.2,30.12,SSW,202,2.2,-999.0,70,-99.99,,,0.00,Acu-Link.com,2013-08-26 06:27:00,
2013-08-26 01:42:00,74.3,64.3,30.11,SSW,202,2.7,-999.0,71,-99.99,,,0.00,Acu-Link.com,2013-08-26 06:42:00,
2013-08-26 01:57:00,74.1,64.5,30.12,South,180,2.7,-999.0,72,-99.99,,,0.00,Acu-Link.com,2013-08-26 06:57:00,
2013-08-26 02:12:00,73.6,64.0,30.11,SSW,202,3.2,-999.0,72,-99.99,,,0.00,Acu-Link.com,2013-08-26 07:12:00,
2013-08-26 02:27:00,73.4,64.2,30.11,South,180,2.2,-999.0,73,-99.99,,,0.00,Acu-Link.com,2013-08-26 07:27:00,
2013-08-26 02:43:00,73.4,64.2,30.12,SSW,202,2.7,-999.0,73,-99.99,,,0.00,Acu-Link.com,2013-08-26 07:43:00,
2013-08-26 02:58:00,73.2,64.0,30.12,SSW,202,0.0,-999.0,73,-99.99,,,0.00,Acu-Link.com,2013-08-26 07:58:00,
2013-08-26 03:14:00,73.2,64.0,30.12,South,180,0.0,-999.0,73,-99.99,,,0.00,Acu-Link.com,2013-08-26 08:14:00,
2013-08-26 03:29:00,73.0,63.8,30.12,SSW,202,2.7,-999.0,73,-99.99,,,0.00,Acu-Link.com,2013-08-26 08:29:00,
2013-08-26 03:44:00,72.9,63.7,30.12,South,180,2.7,-999.0,73,-99.99,,,0.00,Acu-Link.com,2013-08-26 08:44:00,
2013-08-26 03:59:00,72.5,64.1,30.11,SSW,202,0.0,-999.0,75,-99.99,,,0.00,Acu-Link.com,2013-08-26 08:59:00,
2013-08-26 04:14:00,72.0,64.0,30.11,SSW,202,2.7,-999.0,76,-99.99,,,0.00,Acu-Link.com,2013-08-26 09:14:00,
2013-08-26 04:29:00,71.6,64.0,30.11,SSW,202,2.7,-999.0,77,-99.99,,,0.00,Acu-Link.com,2013-08-26 09:29:00,
2013-08-26 04:44:00,71.2,64.0,30.10,SW,225,2.7,-999.0,78,-99.99,,,0.00,Acu-Link.com,2013-08-26 09:44:00,
2013-08-26 04:59:00,71.2,64.0,30.11,SSW,202,0.0,-999.0,78,-99.99,,,0.00,Acu-Link.com,2013-08-26 09:59:00,
2013-08-26 05:15:00,71.2,64.3,30.11,SSW,202,0.0,-999.0,79,-99.99,,,0.00,Acu-Link.com,2013-08-26 10:15:00,
2013-08-26 05:30:00,71.2,64.3,30.11,SSW,202,0.0,-999.0,79,-99.99,,,0.00,Acu-Link.com,2013-08-26 10:30:00,
2013-08-26 05:45:00,71.1,64.2,30.11,SSW,202,0.0,-999.0,79,-99.99,,,0.00,Acu-Link.com,2013-08-26 10:45:00,
2013-08-26 06:00:00,71.1,64.2,30.11,SSW,202,0.0,-999.0,79,-99.99,,,0.00,Acu-Link.com,2013-08-26 11:00:00,
2013-08-26 06:16:00,71.1,64.2,30.11,SSW,202,2.2,-999.0,79,-99.99,,,0.00,Acu-Link.com,2013-08-26 11:16:00,
2013-08-26 06:31:00,71.1,64.6,30.11,WSW,247,2.7,-999.0,80,-99.99,,,0.00,Acu-Link.com,2013-08-26 11:31:00,
2013-08-26 06:46:00,71.1,64.6,30.11,SSW,202,2.2,-999.0,80,-99.99,,,0.00,Acu-Link.com,2013-08-26 11:46:00,
2013-08-26 07:02:00,71.8,64.9,30.12,SSW,202,2.7,-999.0,79,-99.99,,,0.00,Acu-Link.com,2013-08-26 12:02:00,
2013-08-26 07:17:00,72.9,65.3,30.12,SW,225,2.2,-999.0,77,-99.99,,,0.00,Acu-Link.com,2013-08-26 12:17:00,
2013-08-26 07:32:00,74.3,65.8,30.12,SSW,202,2.2,-999.0,75,-99.99,,,0.00,Acu-Link.com,2013-08-26 12:32:00,
2013-08-26 07:47:00,75.7,66.0,30.13,SW,225,3.2,-999.0,72,-99.99,,,0.00,Acu-Link.com,2013-08-26 12:47:00,
2013-08-26 08:03:00,76.5,66.4,30.13,SW,225,2.7,-999.0,71,-99.99,,,0.00,Acu-Link.com,2013-08-26 13:03:00,
2013-08-26 08:18:00,76.8,66.7,30.13,SW,225,4.2,-999.0,71,-99.99,,,0.00,Acu-Link.com,2013-08-26 13:18:00,
2013-08-26 08:33:00,77.4,66.4,30.12,SW,225,5.3,-999.0,69,-99.99,,,0.00,Acu-Link.com,2013-08-26 13:33:00,
2013-08-26 08:48:00,78.1,67.1,30.12,WSW,247,5.3,-999.0,69,-99.99,,,0.00,Acu-Link.com,2013-08-26 13:48:00,
2013-08-26 09:04:00,79.2,67.7,30.12,SSW,202,4.2,-999.0,68,-99.99,,,0.00,Acu-Link.com,2013-08-26 14:04:00,
2013-08-26 09:19:00,79.3,67.4,30.12,SSW,202,5.3,-999.0,67,-99.99,,,0.00,Acu-Link.com,2013-08-26 14:19:00,
2013-08-26 09:34:00,79.3,67.4,30.12,SW,225,0.0,-999.0,67,-99.99,,,0.00,Acu-Link.com,2013-08-26 14:34:00,
2013-08-26 09:49:00,80.6,68.2,30.12,West,270,1.7,-999.0,66,-99.99,,,0.00,Acu-Link.com,2013-08-26 14:49:00,
2013-08-26 10:05:00,82.4,68.5,30.12,WSW,247,6.8,-999.0,63,-99.99,,,0.00,Acu-Link.com,2013-08-26 15:05:00,
2013-08-26 10:20:00,83.3,68.9,30.12,SW,225,0.0,-999.0,62,-99.99,,,0.00,Acu-Link.com,2013-08-26 15:20:00,
2013-08-26 10:35:00,84.0,69.1,30.13,WSW,247,0.0,-999.0,61,-99.99,,,0.00,Acu-Link.com,2013-08-26 15:35:00,
2013-08-26 10:51:00,84.9,69.9,30.13,SSW,202,0.0,-999.0,61,-99.99,,,0.00,Acu-Link.com,2013-08-26 15:51:00,
2013-08-26 11:06:00,84.6,69.6,30.12,SSW,202,0.0,-999.0,61,-99.99,,,0.00,Acu-Link.com,2013-08-26 16:06:00,
2013-08-26 11:21:00,85.8,70.8,30.12,West,270,5.8,-999.0,61,-99.99,,,0.00,Acu-Link.com,2013-08-26 16:21:00,
2013-08-26 11:36:00,86.5,70.9,30.11,SW,225,2.7,-999.0,60,-99.99,,,0.00,Acu-Link.com,2013-08-26 16:36:00,
2013-08-26 11:51:00,87.1,70.5,30.11,SSW,202,0.0,-999.0,58,-99.99,,,0.00,Acu-Link.com,2013-08-26 16:51:00,
2013-08-26 12:07:00,86.2,70.2,30.11,West,270,4.7,-999.0,59,-99.99,,,0.00,Acu-Link.com,2013-08-26 17:07:00,
2013-08-26 12:22:00,86.7,70.6,30.09,West,270,7.8,-999.0,59,-99.99,,,0.00,Acu-Link.com,2013-08-26 17:22:00,
2013-08-26 12:37:00,87.3,70.7,30.09,SSW,202,2.7,-999.0,58,-99.99,,,0.00,Acu-Link.com,2013-08-26 17:37:00,
2013-08-26 12:52:00,88.0,71.3,30.09,SW,225,2.7,-999.0,58,-99.99,,,0.00,Acu-Link.com,2013-08-26 17:52:00,
2013-08-26 13:07:00,88.3,71.1,30.08,SSW,202,3.2,-999.0,57,-99.99,,,0.00,Acu-Link.com,2013-08-26 18:07:00,
2013-08-26 13:23:00,88.9,70.6,30.07,SSW,202,3.7,-999.0,55,-99.99,,,0.00,Acu-Link.com,2013-08-26 18:23:00,
2013-08-26 13:38:00,88.9,70.1,30.06,West,270,3.2,-999.0,54,-99.99,,,0.00,Acu-Link.com,2013-08-26 18:38:00,
2013-08-26 13:54:00,89.4,70.5,30.07,SW,225,2.2,-999.0,54,-99.99,,,0.00,Acu-Link.com,2013-08-26 18:54:00,
2013-08-26 14:09:00,89.6,70.7,30.07,South,180,0.0,-999.0,54,-99.99,,,0.00,Acu-Link.com,2013-08-26 19:09:00,
2013-08-26 14:24:00,90.1,70.6,30.06,SW,225,4.2,-999.0,53,-99.99,,,0.00,Acu-Link.com,2013-08-26 19:24:00,
2013-08-26 14:39:00,90.9,70.2,30.05,SSW,202,1.1,-999.0,51,-99.99,,,0.00,Acu-Link.com,2013-08-26 19:39:00,
2013-08-26 14:54:00,90.3,70.2,30.05,SSW,202,4.2,-999.0,52,-99.99,,,0.00,Acu-Link.com,2013-08-26 19:54:00,
2013-08-26 15:09:00,90.7,70.0,30.05,WSW,247,4.7,-999.0,51,-99.99,,,0.00,Acu-Link.com,2013-08-26 20:09:00,
2013-08-26 15:25:00,90.7,69.5,30.04,SW,225,0.0,-999.0,50,-99.99,,,0.00,Acu-Link.com,2013-08-26 20:25:00,
2013-08-26 15:40:00,91.9,69.4,30.03,SW,225,3.7,-999.0,48,-99.99,,,0.00,Acu-Link.com,2013-08-26 20:40:00,
2013-08-26 15:55:00,92.1,67.7,30.03,SSW,202,4.7,-999.0,45,-99.99,,,0.00,Acu-Link.com,2013-08-26 20:55:00,
2013-08-26 16:11:00,92.5,67.4,30.02,WSW,247,4.2,-999.0,44,-99.99,,,0.00,Acu-Link.com,2013-08-26 21:11:00,
2013-08-26 16:26:00,92.8,67.6,30.02,East,90,0.0,-999.0,44,-99.99,,,0.00,Acu-Link.com,2013-08-26 21:26:00,
2013-08-26 16:41:00,92.1,67.7,30.02,WSW,247,0.0,-999.0,45,-99.99,,,0.00,Acu-Link.com,2013-08-26 21:41:00,
2013-08-26 16:56:00,92.7,68.2,30.01,SW,225,1.1,-999.0,45,-99.99,,,0.00,Acu-Link.com,2013-08-26 21:56:00,
2013-08-26 17:12:00,93.4,68.2,30.01,WSW,247,0.0,-999.0,44,-99.99,,,0.00,Acu-Link.com,2013-08-26 22:12:00,
2013-08-26 17:27:00,92.8,67.0,30.02,SW,225,2.2,-999.0,43,-99.99,,,0.00,Acu-Link.com,2013-08-26 22:27:00,
2013-08-26 17:42:00,94.3,67.6,30.01,SW,225,0.0,-999.0,42,-99.99,,,0.00,Acu-Link.com,2013-08-26 22:42:00,
2013-08-26 17:57:00,95.0,66.8,30.01,SSW,202,0.0,-999.0,40,-99.99,,,0.00,Acu-Link.com,2013-08-26 22:57:00,
2013-08-26 18:13:00,94.6,65.8,30.00,SW,225,0.0,-999.0,39,-99.99,,,0.00,Acu-Link.com,2013-08-26 23:13:00,
2013-08-26 18:28:00,94.5,64.9,30.00,SSW,202,0.0,-999.0,38,-99.99,,,0.00,Acu-Link.com,2013-08-26 23:28:00,
2013-08-26 18:43:00,93.9,65.9,29.99,SSW,202,0.0,-999.0,40,-99.99,,,0.00,Acu-Link.com,2013-08-26 23:43:00,
2013-08-26 18:58:00,92.5,66.0,29.99,SSW,202,0.0,-999.0,42,-99.99,,,0.00,Acu-Link.com,2013-08-26 23:58:00,
2013-08-26 19:13:00,90.7,69.5,29.99,SSW,202,0.0,-999.0,50,-99.99,,,0.00,Acu-Link.com,2013-08-27 00:13:00,
2013-08-26 19:29:00,88.7,71.0,29.98,SSW,202,0.0,-999.0,56,-99.99,,,0.00,Acu-Link.com,2013-08-27 00:29:00,
2013-08-26 19:44:00,86.9,71.3,29.97,SSW,202,0.0,-999.0,60,-99.99,,,0.00,Acu-Link.com,2013-08-27 00:44:00,
2013-08-26 19:59:00,86.2,71.6,29.98,SSW,202,0.0,-999.0,62,-99.99,,,0.00,Acu-Link.com,2013-08-27 00:59:00,
2013-08-26 20:14:00,85.5,71.9,29.97,SW,225,0.0,-999.0,64,-99.99,,,0.00,Acu-Link.com,2013-08-27 01:14:00,
2013-08-26 20:29:00,84.6,71.5,29.97,SSW,202,0.0,-999.0,65,-99.99,,,0.00,Acu-Link.com,2013-08-27 01:29:00,
2013-08-26 20:45:00,84.2,71.6,29.98,SSW,202,0.0,-999.0,66,-99.99,,,0.00,Acu-Link.com,2013-08-27 01:45:00,
2013-08-26 21:00:00,83.3,71.6,29.98,SW,225,0.0,-999.0,68,-99.99,,,0.00,Acu-Link.com,2013-08-27 02:00:00,
2013-08-26 21:15:00,83.1,71.4,29.98,WSW,247,0.0,-999.0,68,-99.99,,,0.00,Acu-Link.com,2013-08-27 02:15:00,
2013-08-26 21:30:00,82.6,71.4,29.99,SW,225,0.0,-999.0,69,-99.99,,,0.00,Acu-Link.com,2013-08-27 02:30:00,
2013-08-26 21:46:00,82.2,71.4,29.98,SSW,202,0.0,-999.0,70,-99.99,,,0.00,Acu-Link.com,2013-08-27 02:46:00,
2013-08-26 22:01:00,81.9,71.6,29.99,SSW,202,0.0,-999.0,71,-99.99,,,0.00,Acu-Link.com,2013-08-27 03:01:00,
2013-08-26 22:16:00,81.5,71.2,29.99,South,180,0.0,-999.0,71,-99.99,,,0.00,Acu-Link.com,2013-08-27 03:16:00,
2013-08-26 22:31:00,81.1,70.8,29.99,SSW,202,0.0,-999.0,71,-99.99,,,0.00,Acu-Link.com,2013-08-27 03:31:00,
2013-08-26 22:46:00,81.0,71.1,29.99,SW,225,0.0,-999.0,72,-99.99,,,0.00,Acu-Link.com,2013-08-27 03:46:00,
2013-08-26 23:01:00,80.4,70.5,29.99,SSW,202,0.0,-999.0,72,-99.99,,,0.00,Acu-Link.com,2013-08-27 04:01:00,
2013-08-26 23:17:00,80.2,70.3,29.98,SW,225,0.0,-999.0,72,-99.99,,,0.00,Acu-Link.com,2013-08-27 04:17:00,
2013-08-26 23:32:00,80.2,70.3,29.98,SSW,202,0.0,-999.0,72,-99.99,,,0.00,Acu-Link.com,2013-08-27 04:32:00,
2013-08-26 23:47:00,80.2,69.9,29.97,SSW,202,0.0,-999.0,71,-99.99,,,0.00,Acu-Link.com,2013-08-27 04:47:00,